Time;durP1;ratioP1;P1;durP2;ratioP2;P2;SDS_P1;SDS_P2;PMS_P1;PMS_P2;Temp;Humidity;BMP_temperature;BMP_pressure;BME280_temperature;BME280_humidity;BME280_pressure;Samples;Min_cycle;Max_cycle;Signal;HPM_P1;HPM_P2
2022/12/14 00:01:12;;;;;;;67.23;39.63;;;-3.40;99.90;;;;;;5032309;28;20276;-77
2022/12/14 00:03:38;;;;;;;67.30;37.77;;;-3.40;99.90;;;;;;5029770;28;20338;-76
2022/12/14 00:06:12;;;;;;;67.33;38.17;;;-3.40;99.90;;;;;;5031992;28;20288;-77
2022/12/14 00:08:37;;;;;;;65.10;38.10;;;-3.40;99.90;;;;;;5009396;28;20055;-77
2022/12/14 00:11:03;;;;;;;63.20;36.77;;;-3.40;99.90;;;;;;5013838;28;20843;-76
2022/12/14 00:13:29;;;;;;;64.30;37.07;;;-3.40;99.90;;;;;;5015060;28;20041;-77
2022/12/14 00:15:55;;;;;;;60.90;36.30;;;-3.40;99.90;;;;;;5030874;28;20115;-77
2022/12/14 00:18:20;;;;;;;62.07;36.30;;;-3.40;99.90;;;;;;5015696;28;20087;-76
2022/12/14 00:20:46;;;;;;;61.60;36.47;;;-3.40;99.90;;;;;;5017159;28;20053;-77
2022/12/14 00:23:12;;;;;;;63.20;37.40;;;-3.40;99.90;;;;;;5020771;28;20132;-77
2022/12/14 00:25:37;;;;;;;67.17;38.47;;;-3.40;99.90;;;;;;5027751;28;20057;-77
2022/12/14 00:28:03;;;;;;;63.50;36.77;;;-3.40;99.90;;;;;;5014374;28;20040;-76
2022/12/14 00:30:29;;;;;;;63.87;37.07;;;-3.50;99.90;;;;;;4997045;28;20120;-77
2022/12/14 00:32:55;;;;;;;61.87;35.63;;;-3.50;99.90;;;;;;4999546;28;20449;-77
2022/12/14 00:35:22;;;;;;;59.53;35.33;;;-3.50;99.90;;;;;;5031512;28;20073;-77
2022/12/14 00:37:48;;;;;;;62.50;36.47;;;-3.60;99.90;;;;;;5014957;28;20276;-76
2022/12/14 00:40:13;;;;;;;64.03;37.17;;;-3.60;99.90;;;;;;5000115;28;20870;-76
2022/12/14 00:42:39;;;;;;;60.97;35.83;;;-3.60;99.90;;;;;;5052193;28;20032;-77
2022/12/14 00:45:06;;;;;;;60.13;35.83;;;-3.70;99.90;;;;;;5051817;28;20040;-76
2022/12/14 00:47:32;;;;;;;61.13;34.70;;;-3.60;99.90;;;;;;5051962;28;20283;-76
2022/12/14 00:49:58;;;;;;;57.97;33.77;;;-3.70;99.90;;;;;;5052068;28;20286;-76
2022/12/14 00:52:23;;;;;;;62.30;35.50;;;-3.60;99.90;;;;;;5051760;28;20051;-76
2022/12/14 00:54:49;;;;;;;60.47;35.10;;;-3.60;99.90;;;;;;5051932;28;20041;-76
2022/12/14 00:57:15;;;;;;;63.33;36.80;;;-3.60;99.90;;;;;;5051749;28;20082;-77
2022/12/14 00:59:40;;;;;;;64.33;36.30;;;-3.60;99.90;;;;;;5035638;28;20036;-77
2022/12/14 01:02:06;;;;;;;58.67;34.93;;;-3.60;99.90;;;;;;5052052;28;20488;-77
2022/12/14 01:04:32;;;;;;;62.37;35.37;;;-3.70;99.90;;;;;;5035530;28;20553;-76
2022/12/14 01:06:58;;;;;;;62.77;34.83;;;-3.70;99.90;;;;;;5018446;28;20554;-76
2022/12/14 01:09:25;;;;;;;55.50;33.57;;;-3.70;99.90;;;;;;5051786;28;20095;-77
2022/12/14 01:11:52;;;;;;;58.77;33.60;;;-3.70;99.90;;;;;;5052047;28;20055;-76
2022/12/14 01:14:19;;;;;;;58.67;34.00;;;-3.70;99.90;;;;;;5029971;28;20803;-76
2022/12/14 01:16:46;;;;;;;57.73;33.07;;;-3.70;99.90;;;;;;5035454;28;20339;-76
2022/12/14 01:19:13;;;;;;;57.93;34.03;;;-3.80;99.90;;;;;;5051754;28;20271;-77
2022/12/14 01:21:39;;;;;;;62.50;35.23;;;-3.80;99.90;;;;;;5032761;28;20318;-77
2022/12/14 01:24:05;;;;;;;68.20;36.60;;;-3.80;99.90;;;;;;5033352;28;20726;-76
2022/12/14 01:26:35;;;;;;;61.70;34.73;;;-3.90;99.90;;;;;;5051812;28;20271;-78
2022/12/14 01:29:02;;;;;;;60.80;33.00;;;-3.90;99.90;;;;;;5030483;28;20275;-78
2022/12/14 01:31:30;;;;;;;59.93;34.93;;;-3.80;99.90;;;;;;5033642;28;20275;-79
2022/12/14 01:33:56;;;;;;;60.30;34.20;;;-3.80;99.90;;;;;;5051383;28;20283;-78
2022/12/14 01:36:25;;;;;;;63.50;35.57;;;-3.90;99.90;;;;;;5030221;28;20767;-76
2022/12/14 01:38:55;;;;;;;59.47;35.47;;;-3.90;99.90;;;;;;5051459;28;20036;-76
2022/12/14 01:41:24;;;;;;;63.43;34.53;;;-4.00;99.90;;;;;;5048675;28;20314;-76
2022/12/14 01:43:53;;;;;;;59.70;34.20;;;-4.10;99.90;;;;;;5034240;28;20290;-76
2022/12/14 01:46:25;;;;;;;60.20;33.40;;;-4.10;99.90;;;;;;5051326;28;20283;-77
2022/12/14 01:48:54;;;;;;;62.40;33.73;;;-4.10;99.90;;;;;;5035054;28;20386;-76
2022/12/14 01:51:22;;;;;;;60.63;34.63;;;-4.20;99.90;;;;;;5051479;28;20357;-78
2022/12/14 01:53:48;;;;;;;61.67;35.07;;;-4.20;99.90;;;;;;5036032;28;20804;-78
2022/12/14 01:56:15;;;;;;;61.90;33.50;;;-4.20;99.90;;;;;;5050189;28;20310;-79
2022/12/14 01:58:40;;;;;;;60.83;31.87;;;-4.20;99.90;;;;;;5056157;28;20348;-77
2022/12/14 02:01:06;;;;;;;62.63;32.47;;;-4.20;99.90;;;;;;5018909;28;20303;-77
2022/12/14 02:03:46;;;;;;;55.97;32.20;;;-4.30;99.90;;;;;;5054986;28;20028;-77
2022/12/14 02:06:20;;;;;;;57.60;31.67;;;-4.40;99.90;;;;;;5054983;28;20064;-77
2022/12/14 02:08:49;;;;;;;54.00;30.57;;;-4.50;99.90;;;;;;5054595;28;20372;-77
2022/12/14 02:11:28;;;;;;;60.90;31.20;;;-4.50;99.90;;;;;;5038261;28;20275;-77
2022/12/14 02:13:53;;;;;;;54.50;30.87;;;-4.60;99.90;;;;;;5055550;28;20282;-77
2022/12/14 02:16:19;;;;;;;53.50;30.60;;;-4.60;99.90;;;;;;5055096;28;20662;-77
2022/12/14 02:18:45;;;;;;;56.70;31.90;;;-4.70;99.90;;;;;;5038712;28;20068;-77
2022/12/14 02:21:29;;;;;;;53.47;30.47;;;-4.70;99.90;;;;;;5021193;28;20044;-77
2022/12/14 02:24:02;;;;;;;55.83;31.40;;;-4.60;99.90;;;;;;5053897;28;20094;-77
2022/12/14 02:27:05;;;;;;;55.50;30.60;;;-4.60;99.90;;;;;;5032494;28;20785;-77
2022/12/14 02:29:57;;;;;;;57.23;31.67;;;-4.60;99.90;;;;;;5037409;28;20029;-77
2022/12/14 02:32:33;;;;;;;58.00;31.85;;;-4.60;99.90;;;;;;5051312;28;20282;-77
2022/12/14 02:35:02;;;;;;;56.03;32.47;;;-4.60;99.90;;;;;;5052230;28;20048;-76
2022/12/14 02:37:37;;;;;;;59.90;32.47;;;-4.60;99.90;;;;;;5055103;28;20279;-76
2022/12/14 02:40:21;;;;;;;62.43;32.83;;;-4.50;99.90;;;;;;5054165;28;20286;-76
2022/12/14 02:43:20;;;;;;;61.30;33.40;;;-4.50;99.90;;;;;;5054598;28;20293;-76
2022/12/14 02:46:21;;;;;;;63.20;32.50;;;-4.50;99.90;;;;;;5051745;28;20278;-76
2022/12/14 02:49:08;;;;;;;59.27;32.00;;;-4.50;99.90;;;;;;5054325;28;20626;-76
2022/12/14 02:51:59;;;;;;;63.43;35.07;;;-4.50;99.90;;;;;;5037417;28;20287;-76
2022/12/14 02:54:40;;;;;;;58.30;33.00;;;-4.50;99.90;;;;;;5036064;28;20326;-76
2022/12/14 02:57:30;;;;;;;61.30;33.27;;;-4.50;99.90;;;;;;5050484;28;20891;-76
2022/12/14 03:00:00;;;;;;;61.50;32.60;;;-4.50;99.90;;;;;;5053946;28;20286;-76
2022/12/14 03:02:27;;;;;;;60.23;31.77;;;-4.60;99.90;;;;;;5054025;28;20290;-77
2022/12/14 03:04:53;;;;;;;61.13;32.57;;;-4.70;99.90;;;;;;5036825;28;20785;-77
2022/12/14 03:07:49;;;;;;;60.43;34.27;;;-4.70;99.90;;;;;;5053740;28;20316;-76
2022/12/14 03:10:38;;;;;;;57.10;31.70;;;-4.80;99.90;;;;;;5046974;28;20304;-76
2022/12/14 03:13:37;;;;;;;61.93;33.53;;;-4.80;99.90;;;;;;5054051;28;20301;-76
2022/12/14 03:16:27;;;;;;;58.37;33.03;;;-4.80;99.90;;;;;;5069685;28;20395;-76
2022/12/14 03:19:01;;;;;;;58.63;31.53;;;-4.90;99.90;;;;;;5053055;28;20282;-78
2022/12/14 03:21:34;;;;;;;57.93;32.87;;;-4.90;99.90;;;;;;5053838;28;20275;-76
2022/12/14 03:24:04;;;;;;;59.97;32.13;;;-4.90;99.90;;;;;;5036892;28;20275;-78
2022/12/14 03:26:35;;;;;;;56.37;31.97;;;-5.00;99.90;;;;;;5053409;28;20291;-78
2022/12/14 03:29:16;;;;;;;61.57;33.13;;;-5.10;99.90;;;;;;5056820;28;20295;-79
2022/12/14 03:31:48;;;;;;;57.07;33.73;;;-5.10;99.90;;;;;;5034764;28;20286;-79
2022/12/14 03:34:16;;;;;;;57.57;30.93;;;-5.10;99.90;;;;;;5053394;28;20313;-78
2022/12/14 03:36:48;;;;;;;58.60;32.40;;;-5.10;99.90;;;;;;5037015;28;20275;-78
2022/12/14 03:39:22;;;;;;;54.00;30.50;;;-5.10;99.90;;;;;;5053037;28;20321;-76
2022/12/14 03:42:06;;;;;;;60.20;32.47;;;-5.10;99.90;;;;;;5050578;28;20397;-81
2022/12/14 03:44:47;;;;;;;56.60;30.67;;;-5.30;99.90;;;;;;5029347;28;20310;-81
2022/12/14 03:47:26;;;;;;;60.13;31.83;;;-5.30;99.90;;;;;;5055266;28;20403;-81
2022/12/14 03:49:59;;;;;;;58.13;31.53;;;-5.40;99.90;;;;;;5053498;28;20290;-82
2022/12/14 03:52:39;;;;;;;58.80;31.00;;;-5.40;99.90;;;;;;5045542;28;20291;-82
2022/12/14 03:55:24;;;;;;;58.30;31.63;;;-5.50;99.90;;;;;;5040049;28;20364;-82
2022/12/14 03:58:06;;;;;;;60.17;32.73;;;-5.50;99.90;;;;;;5040126;28;20322;-81
2022/12/14 04:00:39;;;;;;;54.85;31.00;;;-5.50;99.90;;;;;;5027007;28;20274;-82
2022/12/14 04:03:22;;;;;;;58.57;31.00;;;-5.60;99.90;;;;;;5039439;28;20055;-81
2022/12/14 04:05:59;;;;;;;56.80;31.83;;;-5.50;99.90;;;;;;5039900;28;20282;-81
2022/12/14 04:08:41;;;;;;;54.43;30.97;;;-5.60;99.90;;;;;;5039282;28;20289;-81
2022/12/14 04:19:55;;;;;;;55.27;30.50;;;-5.60;99.90;;;;;;5055812;28;20373;-81
2022/12/14 04:22:24;;;;;;;59.57;31.13;;;-5.60;99.90;;;;;;5039251;28;20313;-81
2022/12/14 04:27:57;;;;;;;60.20;31.33;;;-5.60;99.90;;;;;;5055542;28;20275;-81
2022/12/14 04:30:23;;;;;;;62.50;32.13;;;-5.60;99.90;;;;;;5038558;28;20812;-81
2022/12/14 04:32:59;;;;;;;55.63;30.20;;;-5.60;99.90;;;;;;5038829;28;20777;-81
2022/12/14 04:35:34;;;;;;;61.30;32.10;;;-5.60;99.90;;;;;;5039150;28;20710;-81
2022/12/14 04:38:11;;;;;;;65.13;32.77;;;-5.60;99.90;;;;;;5038585;28;20301;-81
2022/12/14 04:40:54;;;;;;;64.83;32.67;;;-5.60;99.90;;;;;;5038833;28;20299;-81
2022/12/14 04:43:25;;;;;;;61.73;31.17;;;-5.60;99.90;;;;;;5073288;28;20267;-81
2022/12/14 04:45:58;;;;;;;58.37;31.03;;;-5.60;99.90;;;;;;5056098;28;20348;-82
2022/12/14 04:48:34;;;;;;;60.63;32.37;;;-5.50;99.90;;;;;;5038921;28;20283;-81
2022/12/14 04:51:05;;;;;;;56.87;30.60;;;-5.50;99.90;;;;;;5055303;28;20287;-82
2022/12/14 04:53:34;;;;;;;61.83;31.60;;;-5.50;99.90;;;;;;5039172;28;20333;-81
2022/12/14 04:56:17;;;;;;;59.00;31.93;;;-5.50;99.90;;;;;;5055037;28;21061;-81
2022/12/14 04:58:43;;;;;;;58.77;31.87;;;-5.50;99.90;;;;;;5033483;28;20278;-81
2022/12/14 05:01:15;;;;;;;63.43;31.73;;;-5.60;99.90;;;;;;5019615;28;20277;-81
2022/12/14 05:04:22;;;;;;;57.75;30.95;;;-5.50;99.90;;;;;;5038828;28;20045;-81
2022/12/14 05:07:13;;;;;;;64.50;32.53;;;-5.60;99.90;;;;;;5043209;28;20052;-81
2022/12/14 05:09:48;;;;;;;63.83;32.60;;;-5.70;99.90;;;;;;5040798;28;20322;-81
2022/12/14 05:12:35;;;;;;;60.37;31.00;;;-5.70;99.90;;;;;;5038694;28;20757;-81
2022/12/14 05:15:10;;;;;;;59.23;33.50;;;-5.70;99.90;;;;;;5018927;28;20728;-81
2022/12/14 05:17:38;;;;;;;58.53;31.53;;;-5.70;99.90;;;;;;5024060;28;20767;-81
2022/12/14 05:20:05;;;;;;;57.07;31.10;;;-5.70;99.90;;;;;;5018863;28;20283;-81
2022/12/14 05:22:30;;;;;;;57.37;30.83;;;-5.70;99.90;;;;;;5034992;28;20331;-82
2022/12/14 05:24:56;;;;;;;57.57;31.03;;;-5.70;99.90;;;;;;5022323;28;20778;-81
2022/12/14 05:27:22;;;;;;;58.37;30.47;;;-5.60;99.90;;;;;;5002208;28;20142;-81
2022/12/14 05:29:48;;;;;;;62.60;31.37;;;-5.70;99.90;;;;;;5002300;28;20279;-80
2022/12/14 05:32:13;;;;;;;52.53;29.83;;;-5.70;99.90;;;;;;5032915;28;20504;-82
2022/12/14 05:34:39;;;;;;;55.60;30.57;;;-5.70;99.90;;;;;;5017921;28;20041;-81
2022/12/14 05:37:05;;;;;;;56.73;30.27;;;-5.70;99.90;;;;;;5021157;28;20063;-81
2022/12/14 05:39:31;;;;;;;60.77;32.13;;;-5.70;99.90;;;;;;5004991;28;20044;-81
2022/12/14 05:41:56;;;;;;;61.30;30.40;;;-5.70;99.90;;;;;;5049262;28;20412;-81
2022/12/14 05:44:22;;;;;;;65.23;31.27;;;-5.70;99.90;;;;;;4998812;28;20036;-81
2022/12/14 05:46:48;;;;;;;57.80;31.60;;;-5.70;99.90;;;;;;5014899;28;20046;-81
2022/12/14 05:49:13;;;;;;;59.93;30.93;;;-5.60;99.90;;;;;;5006747;28;20483;-81
2022/12/14 05:51:39;;;;;;;59.10;30.63;;;-5.60;99.90;;;;;;5031320;28;20064;-81
2022/12/14 05:54:05;;;;;;;60.13;30.83;;;-5.60;99.90;;;;;;5018949;28;20802;-81
2022/12/14 05:56:31;;;;;;;60.83;30.90;;;-5.60;99.90;;;;;;5040441;28;20091;-81
2022/12/14 05:58:57;;;;;;;57.33;31.73;;;-5.60;99.90;;;;;;5031647;28;20038;-81
2022/12/14 06:01:23;;;;;;;57.13;30.97;;;-5.60;99.90;;;;;;5028406;28;20124;-81
2022/12/14 06:03:51;;;;;;;53.10;29.50;;;-5.60;99.90;;;;;;5028274;28;20087;-81
2022/12/14 06:06:17;;;;;;;64.67;31.17;;;-5.50;99.90;;;;;;5032262;28;20453;-81
2022/12/14 06:08:44;;;;;;;56.73;29.93;;;-5.60;99.90;;;;;;5014484;28;20291;-82
2022/12/14 06:11:19;;;;;;;55.10;29.93;;;-5.60;99.90;;;;;;5034707;28;20098;-82
2022/12/14 06:13:46;;;;;;;59.57;30.57;;;-5.50;99.90;;;;;;5027334;28;20347;-82
2022/12/14 06:16:13;;;;;;;61.73;33.33;;;-5.60;99.90;;;;;;5021281;28;20352;-81
2022/12/14 06:18:44;;;;;;;61.77;33.70;;;-5.50;99.90;;;;;;5031270;28;20280;-81
2022/12/14 06:21:10;;;;;;;51.70;29.27;;;-5.50;99.90;;;;;;5022641;28;20271;-81
2022/12/14 06:23:36;;;;;;;60.33;31.37;;;-5.50;99.90;;;;;;5047726;28;20501;-81
2022/12/14 06:26:02;;;;;;;57.87;29.47;;;-5.50;99.90;;;;;;5015238;28;20363;-81
2022/12/14 06:28:28;;;;;;;53.73;30.03;;;-5.60;99.90;;;;;;5022162;28;20033;-81
2022/12/14 06:30:53;;;;;;;56.93;31.37;;;-5.50;99.90;;;;;;5005174;28;20122;-81
2022/12/14 06:33:19;;;;;;;64.03;32.43;;;-5.60;99.90;;;;;;5006078;28;20049;-81
2022/12/14 06:35:46;;;;;;;56.20;31.07;;;-5.60;99.90;;;;;;4984392;28;20041;-82
2022/12/14 06:38:13;;;;;;;59.77;31.87;;;-5.60;99.90;;;;;;4994987;28;20041;-82
2022/12/14 06:40:39;;;;;;;55.83;30.37;;;-5.70;99.90;;;;;;4993540;28;20778;-81
2022/12/14 06:43:05;;;;;;;62.60;32.23;;;-5.70;99.90;;;;;;5057662;28;20283;-81
2022/12/14 06:45:31;;;;;;;60.33;30.50;;;-5.70;99.90;;;;;;5041188;28;20291;-81
2022/12/14 06:47:57;;;;;;;58.10;30.17;;;-5.70;99.90;;;;;;5057472;28;20040;-80
2022/12/14 06:50:23;;;;;;;58.97;31.07;;;-5.70;99.90;;;;;;5057719;28;20101;-81
2022/12/14 06:52:50;;;;;;;60.40;31.83;;;-5.70;99.90;;;;;;5041264;28;20777;-81
2022/12/14 06:55:16;;;;;;;56.60;31.23;;;-5.70;99.90;;;;;;5040951;28;20631;-81
2022/12/14 06:57:42;;;;;;;55.83;28.73;;;-5.70;99.90;;;;;;5040643;28;20277;-81
2022/12/14 07:00:11;;;;;;;56.03;29.40;;;-5.70;99.90;;;;;;5057066;28;20398;-82
2022/12/14 07:02:37;;;;;;;56.73;30.00;;;-5.70;99.90;;;;;;5040890;28;20409;-81
2022/12/14 07:05:04;;;;;;;55.07;29.00;;;-5.70;99.90;;;;;;5021167;28;20276;-81
2022/12/14 07:07:34;;;;;;;53.43;28.83;;;-5.70;99.90;;;;;;5022876;28;20294;-81
2022/12/14 07:10:00;;;;;;;54.17;29.00;;;-5.70;99.90;;;;;;5075043;28;20291;-81
2022/12/14 07:12:27;;;;;;;54.37;29.73;;;-5.80;99.90;;;;;;5056574;28;20329;-81
2022/12/14 07:14:53;;;;;;;53.93;28.00;;;-5.80;99.90;;;;;;5055240;28;20337;-81
2022/12/14 07:17:19;;;;;;;51.97;27.67;;;-5.80;99.90;;;;;;5039405;28;20285;-81
2022/12/14 07:19:46;;;;;;;53.80;28.10;;;-5.80;99.90;;;;;;5040489;28;20781;-81
2022/12/14 07:22:12;;;;;;;56.67;29.00;;;-5.90;99.90;;;;;;5040153;28;20283;-81
2022/12/14 07:24:39;;;;;;;50.73;29.33;;;-5.80;99.90;;;;;;5040230;28;20282;-81
2022/12/14 07:27:05;;;;;;;54.03;29.23;;;-5.80;99.90;;;;;;5056838;28;20302;-81
2022/12/14 07:29:31;;;;;;;56.30;30.97;;;-5.80;99.90;;;;;;5024049;28;21047;-80
2022/12/14 07:31:57;;;;;;;56.80;30.40;;;-5.80;99.90;;;;;;5057183;28;20826;-80
2022/12/14 07:34:23;;;;;;;54.63;28.03;;;-5.80;99.90;;;;;;5023264;28;21087;-81
2022/12/14 07:36:51;;;;;;;58.70;29.77;;;-5.80;99.90;;;;;;5040045;28;20283;-81
2022/12/14 07:39:17;;;;;;;58.87;30.10;;;-5.80;99.90;;;;;;5039864;28;20044;-81
2022/12/14 07:41:44;;;;;;;54.43;28.00;;;-5.80;99.90;;;;;;5036290;28;20283;-81
2022/12/14 07:44:10;;;;;;;59.17;29.47;;;-5.70;99.90;;;;;;5036121;28;20362;-81
2022/12/14 07:46:36;;;;;;;53.83;27.20;;;-5.80;99.90;;;;;;5053085;28;20279;-81
2022/12/14 07:49:03;;;;;;;55.13;28.27;;;-5.80;99.90;;;;;;5053380;28;20328;-80
2022/12/14 07:51:31;;;;;;;53.00;27.43;;;-5.80;99.90;;;;;;5035687;28;20113;-81
2022/12/14 07:53:57;;;;;;;56.80;27.37;;;-5.80;99.90;;;;;;5036530;28;20275;-81
2022/12/14 07:56:28;;;;;;;50.03;26.20;;;-5.90;99.90;;;;;;5053049;28;20314;-88
2022/12/14 07:58:55;;;;;;;54.10;28.23;;;-5.90;99.90;;;;;;5036384;28;20651;-88
2022/12/14 08:01:26;;;;;;;55.47;28.03;;;-6.00;99.90;;;;;;5021780;28;20280;-88
2022/12/14 08:03:55;;;;;;;56.97;28.10;;;-6.00;99.90;;;;;;5036523;28;20275;-88
2022/12/14 08:06:23;;;;;;;55.27;28.90;;;-6.00;99.90;;;;;;5036666;28;20418;-88
2022/12/14 08:08:49;;;;;;;61.63;32.57;;;-5.90;99.90;;;;;;5036769;28;20757;-88
2022/12/14 08:11:16;;;;;;;54.57;30.50;;;-5.90;99.90;;;;;;5036204;28;20310;-88
2022/12/14 08:13:42;;;;;;;66.43;32.20;;;-5.90;99.90;;;;;;5036354;28;20290;-89
2022/12/14 08:16:11;;;;;;;59.40;29.90;;;-5.80;99.90;;;;;;5036233;28;20308;-88
2022/12/14 08:18:37;;;;;;;56.30;29.10;;;-5.80;99.90;;;;;;5036333;28;20447;-88
2022/12/14 08:21:04;;;;;;;62.37;29.50;;;-5.80;99.90;;;;;;5036026;28;20484;-88
2022/12/14 08:23:30;;;;;;;53.37;27.83;;;-5.80;99.90;;;;;;5019425;28;20280;-87
2022/12/14 08:25:58;;;;;;;58.87;29.10;;;-5.80;99.90;;;;;;5049815;28;20871;-87
2022/12/14 08:28:25;;;;;;;57.40;28.23;;;-5.70;99.90;;;;;;5043932;28;20749;-88
2022/12/14 08:30:51;;;;;;;54.37;28.10;;;-5.70;99.90;;;;;;5027781;28;21320;-88
2022/12/14 08:33:17;;;;;;;52.93;26.93;;;-5.60;99.90;;;;;;5011622;28;20279;-87
2022/12/14 08:35:44;;;;;;;54.43;28.07;;;-5.50;99.90;;;;;;5027024;28;20045;-88
2022/12/14 08:38:10;;;;;;;53.47;25.73;;;-5.40;99.90;;;;;;5027927;28;20272;-87
2022/12/14 08:40:36;;;;;;;49.57;27.10;;;-5.30;99.90;;;;;;5026937;28;20291;-88
2022/12/14 08:43:03;;;;;;;55.07;28.97;;;-5.30;99.90;;;;;;5007722;28;20327;-87
2022/12/14 08:45:28;;;;;;;57.00;27.47;;;-5.20;99.90;;;;;;4991271;28;20829;-88
2022/12/14 08:47:59;;;;;;;53.53;27.17;;;-5.10;99.90;;;;;;5007996;28;20284;-88
2022/12/14 08:50:26;;;;;;;53.50;28.40;;;-5.00;99.90;;;;;;5021958;28;20097;-88
2022/12/14 08:52:52;;;;;;;55.20;26.27;;;-4.90;99.90;;;;;;5037571;28;20683;-87
2022/12/14 08:55:20;;;;;;;51.93;27.00;;;-4.90;99.90;;;;;;5007960;28;20308;-87
2022/12/14 08:57:46;;;;;;;56.97;27.23;;;-4.80;99.90;;;;;;5021949;28;20048;-88
2022/12/14 09:00:12;;;;;;;55.73;29.27;;;-4.70;99.90;;;;;;5005870;28;20346;-81
2022/12/14 09:02:38;;;;;;;61.83;32.83;;;-4.60;99.90;;;;;;5022224;28;20632;-80
2022/12/14 09:05:04;;;;;;;56.90;32.33;;;-4.50;99.90;;;;;;5024074;28;20280;-80
2022/12/14 09:07:31;;;;;;;58.37;30.50;;;-4.40;99.90;;;;;;5023810;28;20033;-80
2022/12/14 09:09:57;;;;;;;52.70;29.40;;;-4.30;99.90;;;;;;5006879;28;20311;-80
2022/12/14 09:12:23;;;;;;;53.33;28.00;;;-4.20;99.90;;;;;;5021196;28;20331;-80
2022/12/14 09:14:50;;;;;;;60.90;29.90;;;-4.20;99.90;;;;;;5024082;28;20045;-80
2022/12/14 09:17:17;;;;;;;57.67;29.70;;;-4.10;99.90;;;;;;5006806;28;21057;-80
2022/12/14 09:19:43;;;;;;;72.90;33.10;;;-4.00;99.90;;;;;;5004305;28;20312;-81
2022/12/14 09:22:09;;;;;;;77.20;35.70;;;-3.90;99.90;;;;;;5007360;28;20402;-80
2022/12/14 09:24:35;;;;;;;70.50;33.47;;;-3.90;99.90;;;;;;5023458;28;20354;-79
2022/12/14 09:27:02;;;;;;;54.17;27.90;;;-3.80;99.90;;;;;;5023024;28;20359;-80
2022/12/14 09:29:28;;;;;;;49.77;25.57;;;-3.80;99.90;;;;;;5039993;28;20359;-80
2022/12/14 09:31:54;;;;;;;55.73;29.60;;;-3.70;99.90;;;;;;5006663;28;20280;-80
2022/12/14 09:34:22;;;;;;;51.47;26.10;;;-3.60;99.90;;;;;;5022653;28;20287;-79
2022/12/14 09:36:48;;;;;;;49.77;26.23;;;-3.60;99.90;;;;;;4989888;28;20116;-80
2022/12/14 09:39:14;;;;;;;47.93;25.30;;;-3.50;99.90;;;;;;5021280;28;20298;-79
2022/12/14 09:41:55;;;;;;;47.33;25.53;;;-3.50;99.90;;;;;;5013171;28;20306;-80
2022/12/14 09:44:52;;;;;;;48.75;25.63;;;-3.40;99.90;;;;;;5025123;28;20271;-80
2022/12/14 09:47:24;;;;;;;48.27;24.50;;;-3.40;99.90;;;;;;5021394;28;20029;-79
2022/12/14 09:49:54;;;;;;;44.92;24.63;;;-3.40;99.90;;;;;;5026047;28;20290;-80
2022/12/14 09:52:29;;;;;;;49.17;25.63;;;-3.30;99.90;;;;;;5025900;28;20086;-80
2022/12/14 09:54:57;;;;;;;45.23;24.90;;;-3.30;99.90;;;;;;5026954;28;20303;-79
2022/12/14 09:57:40;;;;;;;45.23;23.90;;;-3.20;99.90;;;;;;5009318;28;20631;-80
2022/12/14 10:00:29;;;;;;;41.00;23.70;;;-3.20;99.90;;;;;;5024450;28;20284;-79
2022/12/14 10:03:30;;;;;;;43.77;23.90;;;-3.10;99.90;;;;;;5026748;28;20283;-80
2022/12/14 10:06:11;;;;;;;46.60;22.97;;;-3.00;99.90;;;;;;5026484;28;20328;-80
2022/12/14 10:09:01;;;;;;;43.87;22.77;;;-2.90;99.90;;;;;;5024713;28;20288;-79
2022/12/14 10:12:08;;;;;;;42.20;22.43;;;-2.80;99.90;;;;;;5026173;28;20287;-79
2022/12/14 10:15:02;;;;;;;35.57;20.83;;;-2.80;99.90;;;;;;5021566;28;20328;-80
2022/12/14 10:17:34;;;;;;;39.57;21.63;;;-2.70;99.90;;;;;;5029820;28;20904;-80
2022/12/14 10:20:31;;;;;;;39.33;21.63;;;-2.70;99.90;;;;;;5030423;28;20278;-80
2022/12/14 10:23:03;;;;;;;41.03;21.37;;;-2.70;99.90;;;;;;5046936;28;20337;-82
2022/12/14 10:25:32;;;;;;;39.20;21.38;;;-2.70;99.90;;;;;;5046277;28;20327;-80
2022/12/14 10:28:47;;;;;;;38.43;21.57;;;-2.60;99.90;;;;;;5046081;28;20104;-81
2022/12/14 10:31:18;;;;;;;39.13;21.97;;;-2.60;99.90;;;;;;4987873;28;20696;-81
2022/12/14 10:33:45;;;;;;;42.17;22.50;;;-2.50;99.90;;;;;;5030489;28;20294;-81
2022/12/14 10:36:43;;;;;;;47.73;24.03;;;-2.50;99.90;;;;;;5045553;28;20707;-81
2022/12/14 10:39:38;;;;;;;40.90;23.03;;;-2.40;99.90;;;;;;5028229;28;20291;-81
2022/12/14 10:42:25;;;;;;;44.93;23.30;;;-2.30;99.90;;;;;;5044663;28;20304;-81
2022/12/14 10:45:12;;;;;;;49.30;24.87;;;-2.30;99.90;;;;;;5045974;28;20287;-81
2022/12/14 10:47:45;;;;;;;45.63;23.20;;;-2.20;99.90;;;;;;5044929;28;20279;-82
2022/12/14 10:50:29;;;;;;;44.00;23.47;;;-2.20;99.90;;;;;;5046332;28;22059;-82
2022/12/14 10:52:56;;;;;;;41.43;22.13;;;-2.10;99.90;;;;;;5045758;28;20314;-89
2022/12/14 10:55:33;;;;;;;39.90;22.43;;;-2.00;99.90;;;;;;5037262;28;20825;-88
2022/12/14 10:57:59;;;;;;;43.13;22.73;;;-2.00;99.90;;;;;;5053836;28;20349;-89
2022/12/14 11:00:25;;;;;;;44.60;23.43;;;-2.00;99.90;;;;;;5051421;28;20346;-88
2022/12/14 11:02:54;;;;;;;46.27;24.13;;;-1.90;99.90;;;;;;5008219;28;20283;-88
2022/12/14 11:05:40;;;;;;;44.00;23.97;;;-1.90;99.90;;;;;;5048039;28;20628;-88
2022/12/14 11:08:07;;;;;;;43.47;23.10;;;-1.80;99.90;;;;;;5059172;28;20274;-88
2022/12/14 11:10:35;;;;;;;47.63;24.90;;;-1.80;99.90;;;;;;5038081;28;20352;-89
2022/12/14 11:13:19;;;;;;;49.80;24.63;;;-1.70;99.90;;;;;;5053264;28;20289;-88
2022/12/14 11:15:47;;;;;;;46.83;23.17;;;-1.70;99.90;;;;;;5017736;28;20383;-89
2022/12/14 11:18:15;;;;;;;38.93;22.03;;;-1.60;99.90;;;;;;5036450;28;20332;-88
2022/12/14 11:20:57;;;;;;;38.50;21.77;;;-1.60;99.90;;;;;;5037839;28;20333;-88
2022/12/14 11:23:40;;;;;;;39.30;21.88;;;-1.60;99.90;;;;;;5053701;28;20283;-88
2022/12/14 11:26:15;;;;;;;42.10;22.13;;;-1.50;99.90;;;;;;5054226;28;20048;-88
2022/12/14 11:28:54;;;;;;;39.87;21.23;;;-1.50;99.90;;;;;;5037003;28;21010;-88
2022/12/14 11:31:29;;;;;;;40.73;21.50;;;-1.40;99.90;;;;;;5053914;28;20301;-86
2022/12/14 11:33:57;;;;;;;34.67;20.40;;;-1.40;99.90;;;;;;5054654;28;20284;-87
2022/12/14 11:36:38;;;;;;;39.57;20.27;;;-1.30;99.90;;;;;;5053244;28;20295;-87
2022/12/14 11:39:13;;;;;;;36.03;19.97;;;-1.20;99.90;;;;;;5036877;28;20356;-87
2022/12/14 11:42:03;;;;;;;36.83;20.97;;;-1.20;99.90;;;;;;5037040;28;20292;-88
2022/12/14 11:44:32;;;;;;;36.27;20.27;;;-1.10;99.90;;;;;;5044579;28;20284;-86
2022/12/14 11:46:58;;;;;;;41.80;21.37;;;-1.10;99.90;;;;;;5017492;28;20710;-87
2022/12/14 11:49:28;;;;;;;35.40;18.80;;;-1.00;99.90;;;;;;5040094;28;20355;-87
2022/12/14 11:52:01;;;;;;;35.47;20.03;;;-1.00;99.90;;;;;;5053315;28;20618;-88
2022/12/14 11:54:28;;;;;;;35.07;19.90;;;-0.90;99.90;;;;;;5034017;28;20280;-88
2022/12/14 11:57:12;;;;;;;29.03;17.63;;;-0.90;99.90;;;;;;5037139;28;20310;-88
2022/12/14 11:59:44;;;;;;;32.43;18.17;;;-0.80;99.90;;;;;;5022481;28;20277;-88
2022/12/14 12:02:22;;;;;;;34.53;19.07;;;-0.80;99.90;;;;;;5028744;28;20273;-88
2022/12/14 12:04:57;;;;;;;30.63;17.13;;;-0.80;99.90;;;;;;5050842;28;20341;-87
2022/12/14 12:07:36;;;;;;;33.67;18.03;;;-0.70;99.90;;;;;;5053079;28;20283;-88
2022/12/14 12:10:24;;;;;;;32.80;18.00;;;-0.70;99.90;;;;;;5026035;28;20316;-88
2022/12/14 12:12:51;;;;;;;29.67;17.33;;;-0.60;99.90;;;;;;5016472;28;20776;-88
2022/12/14 12:15:25;;;;;;;30.33;18.33;;;-0.60;99.90;;;;;;5016392;28;20296;-88
2022/12/14 12:18:14;;;;;;;28.13;17.23;;;-0.50;99.90;;;;;;5024256;28;20116;-88
2022/12/14 12:20:51;;;;;;;31.17;17.60;;;-0.50;99.90;;;;;;5017926;28;20041;-88
2022/12/14 12:23:33;;;;;;;30.07;16.63;;;-0.50;99.90;;;;;;5018817;28;20481;-88
2022/12/14 12:26:11;;;;;;;26.27;15.93;;;-0.50;99.90;;;;;;5026714;28;20296;-87
2022/12/14 12:28:42;;;;;;;27.57;16.00;;;-0.50;99.90;;;;;;4989705;28;20054;-87
2022/12/14 12:31:15;;;;;;;25.65;16.50;;;-0.40;99.90;;;;;;5018673;28;20076;-88
2022/12/14 12:33:53;;;;;;;27.97;15.90;;;-0.40;99.90;;;;;;5035741;28;20444;-89
2022/12/14 12:36:20;;;;;;;24.97;15.13;;;-0.40;99.90;;;;;;5027754;28;20033;-88
2022/12/14 12:39:05;;;;;;;27.13;13.57;;;-0.40;99.90;;;;;;4999786;28;20295;-87
2022/12/14 12:41:50;;;;;;;20.20;11.70;;;-0.30;99.90;;;;;;5015216;28;20055;-87
2022/12/14 12:44:57;;;;;;;23.87;13.13;;;-0.30;99.90;;;;;;4996945;28;20281;-87
2022/12/14 12:47:32;;;;;;;24.43;13.40;;;-0.20;99.90;;;;;;4927698;28;20299;-87
2022/12/14 12:50:27;;;;;;;20.73;13.43;;;-0.20;99.90;;;;;;5029837;28;20288;-87
2022/12/14 12:52:58;;;;;;;23.83;13.77;;;-0.20;99.90;;;;;;5029683;28;20048;-87
2022/12/14 12:55:26;;;;;;;25.90;14.13;;;-0.30;99.90;;;;;;5016131;28;20300;-87
2022/12/14 12:57:55;;;;;;;23.53;13.63;;;-0.20;99.90;;;;;;5015374;28;20918;-87
2022/12/14 13:00:26;;;;;;;23.20;14.73;;;-0.20;99.90;;;;;;5009848;28;20040;-87
2022/12/14 13:03:01;;;;;;;25.60;15.35;;;-0.20;99.90;;;;;;5009792;28;20098;-87
2022/12/14 13:05:29;;;;;;;24.37;15.10;;;-0.10;99.90;;;;;;5010862;28;20056;-87